Flight Track Log - Related Links

Times and Time Zones

All times are in EDT time to prevent confusion due to time zone crossing. See the N588P flight status page for this flight to view local times or setup timezone preferences in your user account.

Time Position Orientation Groundspeed Altitude Reporting Facility
EDT Latitude Longitude Course Direction KTS MPH feet Rate Location/Type
Fri 01:48:29 PM 37.6644 -97.4161 35° Northeast 127 146 1,800  Level Kansas City Center
Fri 01:49:41 PM 37.6975 -97.3872 35° Northeast 145 167 3,300 1,273 Climbing Kansas City Center
Fri 01:50:08 PM 37.6947 -97.3617 98° East 154 177 3,900 1,082 Climbing Kansas City Center
Fri 01:50:42 PM 37.6922 -97.3353 97° East 157 181 4,400 1,065 Climbing Kansas City Center
Fri 01:51:10 PM 37.6892 -97.3092 98° East 152 175 5,000 1,343 Climbing Kansas City Center
Fri 01:51:49 PM 37.6864 -97.2753 96° East 147 169 5,900 1,161 Climbing Kansas City Center
Fri 01:52:12 PM 37.6847 -97.2592 97° East 146 168 6,200 1,000 Climbing Kansas City Center
Fri 01:52:55 PM 37.6881 -97.2275 82° East 133 153 7,000 968 Climbing Kansas City Center
Fri 01:53:14 PM 37.6919 -97.2175 64° Northeast 128 147 7,200 764 Climbing Kansas City Center
Fri 01:53:50 PM 37.7056 -97.1928 55° Northeast 132 152 7,700 774 Climbing Kansas City Center
Fri 01:54:16 PM 37.7133 -97.1783 56° Northeast 134 154 8,000 800 Climbing Kansas City Center
Fri 01:54:50 PM 37.7267 -97.1525 57° Northeast 137 158 8,500 677 Climbing Kansas City Center
Fri 01:55:18 PM 37.7350 -97.1386 53° Northeast 136 157 8,700 400 Climbing Kansas City Center
Fri 01:56:20 PM 37.7647 -97.0878 54° Northeast 150 173 9,100 194 Climbing Kansas City Center
Fri 01:57:22 PM 37.7922 -97.0386 55° Northeast 169 194 9,100  Level Kansas City Center
Fri 01:58:24 PM 37.8214 -96.9875 54° Northeast 177 204 9,100  Level Kansas City Center
Fri 01:59:26 PM 37.8500 -96.9356 55° Northeast 180 207 9,100  Level Kansas City Center
Fri 02:00:29 PM 37.8789 -96.8850 54° Northeast 178 205 9,100  Level Kansas City Center
Fri 02:01:31 PM 37.9075 -96.8347 54° Northeast 178 205 9,100  Level Kansas City Center
Fri 02:02:33 PM 37.9428 -96.7725 54° Northeast 180 207 9,100  Level Kansas City Center
Fri 02:03:35 PM 37.9717 -96.7208 55° Northeast 180 207 9,100  Level Kansas City Center
Fri 02:04:37 PM 37.9992 -96.6700 56° Northeast 176 203 9,100  Level Kansas City Center
Fri 02:05:39 PM 38.0286 -96.6178 54° Northeast 181 208 9,100  Level Kansas City Center
Fri 02:06:41 PM 38.0578 -96.5658 54° Northeast 181 208 9,100  Level Kansas City Center
Fri 02:07:43 PM 38.0869 -96.5131 55° Northeast 182 209 9,100  Level Kansas City Center
Fri 02:08:45 PM 38.1214 -96.4503 55° Northeast 181 208 9,100  Level Kansas City Center
Fri 02:09:47 PM 38.1506 -96.3978 55° Northeast 182 209 9,100  Level Kansas City Center
Fri 02:10:49 PM 38.1794 -96.3456 55° Northeast 181 208 9,100  Level Kansas City Center
Fri 02:11:51 PM 38.2114 -96.2900 54° Northeast 177 204 9,100  Level Kansas City Center
Fri 02:12:53 PM 38.2386 -96.2392 56° Northeast 180 207 9,100  Level Kansas City Center
Fri 02:13:55 PM 38.2714 -96.1808 54° Northeast 181 208 9,100  Level Kansas City Center
Fri 02:14:57 PM 38.2983 -96.1289 57° Northeast 183 211 9,100  Level Kansas City Center
Fri 02:15:59 PM 38.3239 -96.0631 64° Northeast 184 212 9,100  Level Kansas City Center
Fri 02:17:02 PM 38.3478 -96.0069 61° Northeast 188 216 9,100  Level Kansas City Center
Fri 02:18:04 PM 38.3694 -95.9503 64° Northeast 186 214 9,100  Level Kansas City Center
Fri 02:19:06 PM 38.3956 -95.8856 63° Northeast 185 213 9,100  Level Kansas City Center
Fri 02:20:08 PM 38.4189 -95.8289 62° Northeast 187 215 9,100  Level Kansas City Center
Fri 02:21:10 PM 38.4447 -95.7639 63° Northeast 186 214 9,100  Level Kansas City Center
Fri 02:22:12 PM 38.4672 -95.7081 63° Northeast 186 214 9,100 -48 Level Kansas City Center
Fri 02:23:14 PM 38.4942 -95.6433 62° Northeast 186 214 9,000 -194 Descending Kansas City Center
Fri 02:24:16 PM 38.5147 -95.5872 65° Northeast 183 211 8,700 -387 Descending Kansas City Center
Fri 02:25:18 PM 38.5431 -95.5175 63° Northeast 196 226 8,200 -484 Descending Kansas City Center
Fri 02:26:20 PM 38.5664 -95.4600 63° Northeast 191 220 7,700 -532 Descending Kansas City Center
Fri 02:27:22 PM 38.5936 -95.3906 63° Northeast 194 223 7,100 -532 Descending Kansas City Center
Fri 02:28:24 PM 38.6178 -95.3294 63° Northeast 200 230 6,600 -532 Descending Kansas City Center
Fri 02:29:26 PM 38.6453 -95.2578 64° Northeast 202 232 6,000 -581 Descending Kansas City Center
Fri 02:30:28 PM 38.6694 -95.1967 63° Northeast 202 232 5,400 -435 Descending Kansas City Center
Fri 02:31:30 PM 38.6739 -95.1261 85° East 183 211 5,100 -240 Descending Kansas City Center
Fri 02:32:33 PM 38.6708 -95.0622 93° East 186 214 4,900 -336 Descending Kansas City Center
Fri 02:33:35 PM 38.6675 -94.9872 93° East 191 220 4,400 -387 Descending Kansas City Center
Fri 02:34:37 PM 38.6639 -94.9253 94° East 185 213 4,100 -242 Descending Kansas City Center
Fri 02:35:39 PM 38.6600 -94.8586 94° East 172 198 3,900 -339 Descending Kansas City Center
Fri 02:36:41 PM 38.6586 -94.8083 92° East 153 176 3,400 -484 Descending Kansas City Center
Fri 02:37:43 PM 38.6608 -94.7503 87° East 147 169 2,900 -242 Descending Kansas City Center
Fri 02:38:45 PM 38.6883 -94.7389 18° North 116 133 2,900  Level Kansas City Center
Fri 02:39:47 PM 38.7211 -94.7378 North 107 123 2,900  Level Kansas City Center
Fri 02:40:49 PM 38.7489 -94.7367 North 105 121 2,900 -145 Level Kansas City Center
Fri 02:41:51 PM 38.7744 -94.7378 358° North 86 99 2,600 -435 Descending Kansas City Center
Fri 02:42:53 PM 38.8022 -94.7367 North 102 117 2,000 -581 Descending Kansas City Center
Fri 02:43:55 PM 38.8289 -94.7386 357° North 103 119 1,400 -581 Descending Kansas City Center

Login

Don't have an account? Register now (free) for customized features, flight alerts, and more!